Aviation Digital Data Service (ADDS)

Output produced by METARs form (1239 UTC 18 August 2017)
found at http://aviationweather.gov/adds/metars/
 
KAEX 181153Z 00000KT 5SM BR CLR 24/24 A3002 RMK AO2 SLP167 70018 T02440244 10261 20244 53011